Terminal Aerodrome Forecast
Issued by NWS Cleveland, OH

Home | Current Version | Previous Version | Graphics & Text | Print | Product List | Glossary On
Versions: 1 2 3 4 5 6 7 8 9 10 11 12 13 14 15 16 17 18 19 20 21 22 23
740
FTUS41 KCLE 251732
TAFYNG
TAF
KYNG 251732Z 2518/2618 25015G25KT P6SM OVC250
     FM252300 25010KT P6SM BKN250
     FM260300 22006KT P6SM BKN250
     FM261500 25010KT P6SM SKC=

USA.gov is the U.S. government's official web portal to all federal, state and local government web resources and services.